createdAt,value
2022-11-10T00:06:12.730Z,100176.37
2022-11-10T00:08:55.533Z,100178.81
2022-11-10T00:11:52.039Z,100179.97
2022-11-10T00:15:17.896Z,100183.41
2022-11-10T00:18:04.286Z,100180.00
2022-11-10T00:20:50.811Z,100187.13
2022-11-10T00:23:38.350Z,100192.59
2022-11-10T00:26:24.522Z,100189.31
2022-11-10T00:29:12.085Z,100192.38
2022-11-10T00:31:57.963Z,100192.75
2022-11-10T00:34:44.034Z,100191.97
2022-11-10T00:37:30.268Z,100195.81
2022-11-10T00:40:16.537Z,100196.44
2022-11-10T00:43:02.946Z,100198.00
2022-11-10T00:45:49.671Z,100194.72
2022-11-10T00:48:35.739Z,100187.59
2022-11-10T00:51:27.509Z,100189.63
2022-11-10T00:54:13.877Z,100183.63
2022-11-10T00:57:00.192Z,100193.72
2022-11-10T00:59:46.258Z,100186.19
2022-11-10T01:02:38.573Z,100184.31
2022-11-10T01:05:24.859Z,100187.13
2022-11-10T01:08:12.109Z,100176.34
2022-11-10T01:11:03.277Z,100179.72
2022-11-10T01:13:53.799Z,100180.56
2022-11-10T01:16:40.680Z,100184.00
2022-11-10T01:19:26.962Z,100181.81
2022-11-10T01:22:13.760Z,100184.13
2022-11-10T01:25:03.368Z,100179.28
2022-11-10T01:28:07.343Z,100182.13
2022-11-10T01:31:00.835Z,100181.41
2022-11-10T01:33:44.711Z,100184.59
2022-11-10T01:36:26.709Z,100187.59
2022-11-10T01:39:10.993Z,100188.44
2022-11-10T01:41:53.266Z,100184.13
2022-11-10T01:44:36.219Z,100190.81
2022-11-10T01:47:19.000Z,100186.19
2022-11-10T01:50:12.861Z,100183.28
2022-11-10T01:52:58.368Z,100188.34
2022-11-10T01:55:42.467Z,100190.25
2022-11-10T01:58:49.592Z,100189.41
2022-11-10T02:01:32.870Z,100188.53
2022-11-10T02:04:16.667Z,100193.66
2022-11-10T02:07:21.623Z,100197.06
2022-11-10T02:10:14.725Z,100195.25
2022-11-10T02:12:59.863Z,100201.50
2022-11-10T02:15:41.904Z,100199.34
2022-11-10T02:18:39.760Z,100205.78
2022-11-10T02:21:33.886Z,100202.25
2022-11-10T02:24:21.136Z,100207.22
2022-11-10T02:27:08.915Z,100207.44
2022-11-10T02:29:55.513Z,100208.41
2022-11-10T02:32:41.645Z,100217.00
2022-11-10T02:35:28.696Z,100216.34
2022-11-10T02:38:15.328Z,100213.84
2022-11-10T02:41:01.451Z,100216.03
2022-11-10T02:43:47.997Z,100218.88
2022-11-10T02:46:37.627Z,100223.03
2022-11-10T02:49:45.510Z,100218.09
2022-11-10T02:52:36.291Z,100216.66
2022-11-10T02:55:23.744Z,100224.78
2022-11-10T02:58:10.647Z,100228.00
2022-11-10T03:00:57.464Z,100227.84
2022-11-10T03:03:43.712Z,100231.03
2022-11-10T03:06:30.284Z,100241.06
2022-11-10T03:09:18.666Z,100252.31
2022-11-10T03:12:04.662Z,100247.31
2022-11-10T03:14:53.005Z,100259.66
2022-11-10T03:17:40.737Z,100254.41
2022-11-10T03:20:27.734Z,100259.09
2022-11-10T03:23:13.720Z,100255.72
2022-11-10T03:26:00.225Z,100260.28
2022-11-10T03:28:46.491Z,100258.88
2022-11-10T03:31:32.789Z,100253.53
2022-11-10T03:34:19.495Z,100259.00
2022-11-10T03:37:05.675Z,100258.47
2022-11-10T03:39:51.989Z,100257.53
2022-11-10T03:42:43.005Z,100265.91
2022-11-10T03:45:29.793Z,100265.72
2022-11-10T03:48:15.863Z,100260.75
2022-11-10T03:51:02.834Z,100274.78
2022-11-10T03:53:49.570Z,100276.59
2022-11-10T03:56:37.205Z,100276.66
2022-11-10T03:59:23.489Z,100275.25
2022-11-10T04:02:09.754Z,100274.66
2022-11-10T04:05:15.701Z,100282.22
2022-11-10T04:08:21.067Z,100286.22
2022-11-10T04:11:07.504Z,100296.03
2022-11-10T04:14:12.549Z,100297.87
2022-11-10T04:16:59.241Z,100298.22
2022-11-10T04:19:45.082Z,100304.00
2022-11-10T04:22:49.792Z,100304.78
2022-11-10T04:25:53.234Z,100305.81
2022-11-10T04:28:45.839Z,100308.72
2022-11-10T04:31:29.719Z,100310.09
2022-11-10T04:34:21.063Z,100309.00
2022-11-10T04:37:08.219Z,100305.25
2022-11-10T04:39:59.786Z,100308.84
2022-11-10T04:42:45.825Z,100307.91
2022-11-10T04:45:33.248Z,100313.09
2022-11-10T04:48:19.236Z,100312.91
2022-11-10T04:51:09.074Z,100313.75
2022-11-10T04:53:52.232Z,100314.47
2022-11-10T04:56:35.067Z,100319.63
2022-11-10T04:59:19.331Z,100330.06
2022-11-10T05:02:00.900Z,100331.53
2022-11-10T05:04:42.921Z,100340.53
2022-11-10T05:07:33.053Z,100348.38
2022-11-10T05:10:16.174Z,100354.03
2022-11-10T05:13:02.180Z,100348.75
2022-11-10T05:15:48.381Z,100347.88
2022-11-10T05:18:36.087Z,100343.66
2022-11-10T05:21:44.921Z,100353.28
2022-11-10T05:24:34.021Z,100355.44
2022-11-10T05:27:20.489Z,100360.31
2022-11-10T05:30:09.762Z,100368.12
2022-11-10T05:32:58.223Z,100363.69
2022-11-10T05:35:46.441Z,100364.66
2022-11-10T05:38:32.639Z,100371.75
2022-11-10T05:41:21.161Z,100373.97
2022-11-10T05:47:48.805Z,100380.97
2022-11-10T05:50:35.186Z,100388.69
2022-11-10T05:53:22.082Z,100386.91
2022-11-10T05:56:11.013Z,100398.34
2022-11-10T05:58:58.021Z,100399.94
2022-11-10T06:02:05.031Z,100407.97
2022-11-10T06:04:53.193Z,100417.28
2022-11-10T06:07:41.236Z,100412.69
2022-11-10T06:10:31.104Z,100423.69
2022-11-10T06:13:21.090Z,100430.53
2022-11-10T06:16:29.533Z,100424.72
2022-11-10T06:19:16.740Z,100434.91
2022-11-10T06:22:07.951Z,100439.09
2022-11-10T06:24:54.321Z,100449.22
2022-11-10T06:27:47.810Z,100455.16
2022-11-10T06:30:36.286Z,100462.75
2022-11-10T06:33:35.274Z,100459.69
2022-11-10T06:36:34.405Z,100466.69
2022-11-10T06:39:20.851Z,100463.84
2022-11-10T06:42:13.696Z,100465.72
2022-11-10T06:45:00.400Z,100462.25
2022-11-10T06:48:11.839Z,100465.97
2022-11-10T06:51:02.989Z,100479.78
2022-11-10T06:54:13.401Z,100488.59
2022-11-10T06:57:02.833Z,100497.34
2022-11-10T06:59:49.613Z,100505.78
2022-11-10T07:02:38.333Z,100504.63
2022-11-10T07:05:38.009Z,100508.22
2022-11-10T07:08:36.197Z,100507.06
2022-11-10T07:11:19.541Z,100520.47
2022-11-10T07:14:18.154Z,100525.44
2022-11-10T07:17:06.053Z,100523.34
2022-11-10T07:19:50.642Z,100523.78
2022-11-10T07:22:49.867Z,100519.34
2022-11-10T07:25:35.738Z,100530.03
2022-11-10T07:28:27.290Z,100527.66
2022-11-10T07:31:15.159Z,100533.72
2022-11-10T07:34:01.201Z,100530.25
2022-11-10T07:36:47.632Z,100536.84
2022-11-10T07:39:35.940Z,100530.03
2022-11-10T07:42:22.284Z,100535.72
2022-11-10T07:45:09.710Z,100544.91
2022-11-10T07:48:04.352Z,100550.28
2022-11-10T07:50:54.725Z,100559.41
2022-11-10T07:53:42.510Z,100546.81
2022-11-10T07:56:29.488Z,100551.06
2022-11-10T07:59:16.649Z,100556.41
2022-11-10T08:02:03.967Z,100552.75
2022-11-10T08:04:53.657Z,100557.12
2022-11-10T08:07:44.046Z,100556.66
2022-11-10T08:10:31.812Z,100570.19
2022-11-10T08:13:21.691Z,100572.53
2022-11-10T08:16:10.786Z,100572.81
2022-11-10T08:18:57.733Z,100581.00
2022-11-10T08:21:46.260Z,100590.81
2022-11-10T08:24:32.505Z,100582.66
2022-11-10T08:27:19.917Z,100588.06
2022-11-10T08:30:09.719Z,100586.22
2022-11-10T08:32:58.343Z,100579.94
2022-11-10T08:35:48.021Z,100587.84
2022-11-10T08:38:34.786Z,100589.41
2022-11-10T08:41:22.218Z,100595.09
2022-11-10T08:44:10.991Z,100609.69
2022-11-10T08:47:04.029Z,100621.19
2022-11-10T08:49:51.901Z,100627.37
2022-11-10T08:52:38.541Z,100635.12
2022-11-10T08:55:24.432Z,100634.44
2022-11-10T08:58:16.335Z,100643.78
2022-11-10T09:01:02.549Z,100655.97
2022-11-10T09:03:48.814Z,100650.69
2022-11-10T09:06:36.257Z,100656.97
2022-11-10T09:09:24.558Z,100654.50
2022-11-10T09:12:11.474Z,100646.41
2022-11-10T09:14:57.705Z,100657.50
2022-11-10T09:17:44.482Z,100660.13
2022-11-10T09:20:36.958Z,100670.16
2022-11-10T09:23:25.464Z,100672.78
2022-11-10T09:26:12.423Z,100675.19
2022-11-10T09:29:01.846Z,100676.53
2022-11-10T09:31:36.815Z,100672.53
2022-11-10T09:34:34.957Z,100668.75
2022-11-10T09:37:33.328Z,100679.47
2022-11-10T09:41:03.270Z,100681.59
2022-11-10T09:44:16.085Z,100678.53
2022-11-10T09:47:50.676Z,100683.84
2022-11-10T09:50:35.898Z,100688.88
2022-11-10T09:53:41.097Z,100690.97
2022-11-10T09:56:40.706Z,100695.75
2022-11-10T09:59:40.099Z,100695.38
2022-11-10T10:02:50.711Z,100704.81
2022-11-10T10:05:36.097Z,100702.16
2022-11-10T10:08:37.638Z,100711.00
2022-11-10T10:11:39.203Z,100711.00
2022-11-10T10:15:00.139Z,100715.66
2022-11-10T10:18:08.953Z,100710.31
2022-11-10T10:21:39.183Z,100710.91
2022-11-10T10:24:32.879Z,100719.03
2022-11-10T10:27:26.488Z,100716.50
2022-11-10T10:30:15.516Z,100712.69
2022-11-10T10:36:02.749Z,100700.34
2022-11-10T10:38:55.813Z,100708.22
2022-11-10T10:41:46.464Z,100705.97
2022-11-10T10:44:40.277Z,100720.84
2022-11-10T10:47:38.976Z,100719.31
2022-11-10T10:50:37.013Z,100718.25
2022-11-10T10:53:25.558Z,100720.22
2022-11-10T10:56:21.564Z,100720.62
2022-11-10T10:59:19.798Z,100720.81
2022-11-10T11:02:31.838Z,100723.00
2022-11-10T11:05:20.369Z,100728.72
2022-11-10T11:08:19.932Z,100725.00
2022-11-10T11:11:09.931Z,100728.66
2022-11-10T11:14:22.344Z,100733.03
2022-11-10T11:17:18.446Z,100750.59
2022-11-10T11:20:10.527Z,100752.69
2022-11-10T11:23:22.747Z,100750.84
2022-11-10T11:26:20.119Z,100752.88
2022-11-10T11:29:32.774Z,100751.12
2022-11-10T11:32:34.388Z,100746.75
2022-11-10T11:35:43.222Z,100748.25
2022-11-10T11:38:41.307Z,100751.44
2022-11-10T11:41:33.808Z,100754.38
2022-11-10T11:45:15.830Z,100753.62
2022-11-10T11:48:33.020Z,100759.59
2022-11-10T11:51:58.957Z,100760.13
2022-11-10T11:54:51.298Z,100754.56
2022-11-10T11:58:16.106Z,100761.41
2022-11-10T12:01:15.160Z,100759.09
2022-11-10T12:04:24.772Z,100759.34
2022-11-10T12:07:14.830Z,100755.19
2022-11-10T12:10:24.640Z,100754.91
2022-11-10T12:13:26.837Z,100760.44
2022-11-10T12:16:31.749Z,100763.31
2022-11-10T12:19:23.207Z,100762.75
2022-11-10T12:22:25.522Z,100775.03
2022-11-10T12:25:48.754Z,100783.44
2022-11-10T12:28:53.861Z,100776.28
2022-11-10T12:31:56.177Z,100779.84
2022-11-10T12:35:02.687Z,100783.84
2022-11-10T12:38:03.755Z,100797.69
2022-11-10T12:40:53.131Z,100805.12
2022-11-10T12:43:55.023Z,100797.75
2022-11-10T12:46:49.493Z,100804.06
2022-11-10T12:49:52.140Z,100804.88
2022-11-10T12:52:47.197Z,100806.41
2022-11-10T12:55:41.729Z,100804.44
2022-11-10T13:01:44.053Z,100807.66
2022-11-10T13:04:28.949Z,100800.97
2022-11-10T13:10:28.279Z,100806.50
2022-11-10T13:13:28.450Z,100807.38
2022-11-10T13:16:41.460Z,100813.44
2022-11-10T13:19:29.681Z,100814.59
2022-11-10T13:22:34.235Z,100821.25
2022-11-10T13:25:36.492Z,100821.28
2022-11-10T13:28:48.254Z,100828.25
2022-11-10T13:32:06.792Z,100829.13
2022-11-10T13:35:30.196Z,100826.59
2022-11-10T13:38:32.183Z,100837.13
2022-11-10T13:41:33.894Z,100851.31
2022-11-10T13:48:14.932Z,100841.63
2022-11-10T13:51:25.350Z,100849.56
2022-11-10T13:57:41.679Z,100845.31
2022-11-10T14:00:35.774Z,100845.25
2022-11-10T14:03:48.152Z,100864.63
2022-11-10T14:06:41.743Z,100855.53
2022-11-10T14:09:33.728Z,100867.41
2022-11-10T14:12:51.722Z,100871.25
2022-11-10T14:15:41.723Z,100865.19
2022-11-10T14:18:47.049Z,100860.31
2022-11-10T14:21:54.031Z,100874.69
2022-11-10T14:24:45.849Z,100882.66
2022-11-10T14:27:47.116Z,100881.44
2022-11-10T14:31:00.143Z,100895.97
2022-11-10T14:33:58.710Z,100899.75
2022-11-10T14:36:51.774Z,100895.63
2022-11-10T14:40:00.249Z,100905.94
2022-11-10T14:42:45.691Z,100902.06
2022-11-10T14:45:28.894Z,100905.75
2022-11-10T14:48:19.614Z,100908.53
2022-11-10T14:51:18.906Z,100905.16
2022-11-10T14:54:02.909Z,100914.06
2022-11-10T14:57:15.216Z,100916.66
2022-11-10T15:00:04.810Z,100919.34
2022-11-10T15:02:48.508Z,100921.09
2022-11-10T15:05:35.480Z,100923.38
2022-11-10T15:08:21.740Z,100929.69
2022-11-10T15:11:35.089Z,100927.47
2022-11-10T15:14:40.025Z,100934.78
2022-11-10T15:17:22.890Z,100933.94
2022-11-10T15:20:32.040Z,100942.69
2022-11-10T15:23:33.809Z,100941.87
2022-11-10T15:26:35.891Z,100946.44
2022-11-10T15:29:23.998Z,100949.16
2022-11-10T15:31:58.708Z,100951.66
2022-11-10T15:34:51.502Z,100946.13
2022-11-10T15:37:45.003Z,100960.31
2022-11-10T15:40:55.861Z,100963.38
2022-11-10T15:43:42.726Z,100968.87
2022-11-10T15:46:33.031Z,100960.53
2022-11-10T15:49:33.110Z,100978.06
2022-11-10T15:52:22.905Z,100972.03
2022-11-10T15:55:23.063Z,100969.34
2022-11-10T15:58:21.499Z,100972.28
2022-11-10T16:01:21.966Z,100974.66
2022-11-10T16:04:13.926Z,100978.88
2022-11-10T16:07:04.416Z,100993.44
2022-11-10T16:09:54.713Z,100993.63
2022-11-10T16:12:41.209Z,100997.44
2022-11-10T16:15:31.942Z,100989.97
2022-11-10T16:18:26.990Z,100992.69
2022-11-10T16:21:21.806Z,100999.47
2022-11-10T16:24:09.445Z,101013.78
2022-11-10T16:27:01.320Z,101013.34
2022-11-10T16:29:58.793Z,101017.56
2022-11-10T16:32:44.749Z,101028.16
2022-11-10T16:35:49.963Z,101024.63
2022-11-10T16:38:57.722Z,101033.13
2022-11-10T16:44:42.507Z,101030.94
2022-11-10T16:47:50.740Z,101033.75
2022-11-10T16:50:41.720Z,101047.97
2022-11-10T16:53:34.812Z,101053.06
2022-11-10T16:56:24.758Z,101052.25
2022-11-10T16:59:27.849Z,101048.72
2022-11-10T17:02:34.729Z,101053.41
2022-11-10T17:05:23.045Z,101059.66
2022-11-10T17:08:02.713Z,101057.25
2022-11-10T17:10:50.695Z,101077.03
2022-11-10T17:13:41.743Z,101091.37
2022-11-10T17:16:37.947Z,101088.41
2022-11-10T17:19:26.569Z,101098.44
2022-11-10T17:22:17.869Z,101102.16
2022-11-10T17:25:26.329Z,101108.88
2022-11-10T17:28:16.382Z,101105.88
2022-11-10T17:31:07.843Z,101109.09
2022-11-10T17:36:53.740Z,101110.50
2022-11-10T17:42:46.719Z,101127.00
2022-11-10T17:45:33.901Z,101136.75
2022-11-10T17:48:23.776Z,101130.91
2022-11-10T17:51:21.439Z,101146.66
2022-11-10T17:54:26.697Z,101147.00
2022-11-10T17:57:13.878Z,101146.09
2022-11-10T18:03:02.861Z,101151.09
2022-11-10T18:05:53.235Z,101156.72
2022-11-10T18:08:35.328Z,101158.16
2022-11-10T18:11:14.899Z,101160.44
2022-11-10T18:14:05.758Z,101155.91
2022-11-10T18:16:52.823Z,101151.78
2022-11-10T18:19:46.733Z,101152.59
2022-11-10T18:22:35.815Z,101156.06
2022-11-10T18:25:28.765Z,101163.69
2022-11-10T18:28:16.369Z,101171.19
2022-11-10T18:34:03.995Z,101172.37
2022-11-10T18:36:58.835Z,101170.88
2022-11-10T18:39:49.984Z,101185.38
2022-11-10T18:42:43.261Z,101187.22
2022-11-10T18:45:31.845Z,101192.75
2022-11-10T18:48:28.813Z,101200.16
2022-11-10T18:51:22.041Z,101196.00
2022-11-10T18:57:06.676Z,101217.25
2022-11-10T18:59:55.699Z,101216.91
2022-11-10T19:03:16.712Z,101223.09
2022-11-10T19:06:01.700Z,101227.22
2022-11-10T19:08:48.786Z,101230.78
2022-11-10T19:11:42.220Z,101246.66
2022-11-10T19:14:29.334Z,101245.69
2022-11-10T19:17:23.334Z,101243.66
2022-11-10T19:20:15.939Z,101261.94
2022-11-10T19:23:16.250Z,101253.47
2022-11-10T19:26:02.827Z,101256.78
2022-11-10T19:28:50.190Z,101257.03
2022-11-10T19:34:37.670Z,101257.31
2022-11-10T19:37:33.493Z,101269.09
2022-11-10T19:40:27.190Z,101274.13
2022-11-10T19:43:14.784Z,101274.69
2022-11-10T19:46:07.794Z,101273.91
2022-11-10T19:48:57.928Z,101273.63
2022-11-10T19:51:56.845Z,101271.03
2022-11-10T19:54:38.092Z,101279.72
2022-11-10T19:57:28.142Z,101283.88
2022-11-10T20:00:18.700Z,101284.91
2022-11-10T20:03:13.206Z,101281.59
2022-11-10T20:06:11.437Z,101280.22
2022-11-10T20:08:51.184Z,101271.47
2022-11-10T20:11:44.802Z,101282.59
2022-11-10T20:14:35.083Z,101276.84
2022-11-10T20:17:21.985Z,101283.38
2022-11-10T20:20:12.788Z,101284.66
2022-11-10T20:23:05.878Z,101281.66
2022-11-10T20:26:15.114Z,101292.59
2022-11-10T20:32:01.879Z,101302.88
2022-11-10T20:34:56.009Z,101302.97
2022-11-10T20:37:44.714Z,101300.31
2022-11-10T20:40:44.720Z,101310.50
2022-11-10T20:43:38.791Z,101314.56
2022-11-10T20:46:52.911Z,101309.69
2022-11-10T20:49:38.380Z,101324.44
2022-11-10T20:52:28.206Z,101325.28
2022-11-10T20:55:18.429Z,101324.94
2022-11-10T20:58:08.657Z,101333.94
2022-11-10T21:00:52.766Z,101337.56
2022-11-10T21:03:40.902Z,101334.59
2022-11-10T21:06:16.938Z,101335.34
2022-11-10T21:09:07.113Z,101347.28
2022-11-10T21:12:18.847Z,101341.81
2022-11-10T21:15:06.731Z,101348.44
2022-11-10T21:18:00.723Z,101353.62
2022-11-10T21:20:48.985Z,101346.75
2022-11-10T21:23:36.483Z,101350.22
2022-11-10T21:26:23.902Z,101351.06
2022-11-10T21:29:15.746Z,101346.06
2022-11-10T21:32:03.342Z,101345.87
2022-11-10T21:34:57.798Z,101349.00
2022-11-10T21:37:45.834Z,101342.72
2022-11-10T21:43:12.343Z,101338.94
2022-11-10T21:46:02.828Z,101348.19
2022-11-10T21:48:55.559Z,101347.84
2022-11-10T21:51:43.903Z,101354.84
2022-11-10T21:54:37.755Z,101352.50
2022-11-10T21:57:24.972Z,101355.31
2022-11-10T22:00:13.781Z,101358.63
2022-11-10T22:03:03.936Z,101355.69
2022-11-10T22:05:50.322Z,101366.31
2022-11-10T22:08:39.727Z,101379.03
2022-11-10T22:11:45.382Z,101367.78
2022-11-10T22:14:51.488Z,101364.53
2022-11-10T22:18:07.291Z,101367.81
2022-11-10T22:20:54.597Z,101372.72
2022-11-10T22:24:14.076Z,101378.31
2022-11-10T22:27:08.710Z,101381.41
2022-11-10T22:29:55.156Z,101389.13
2022-11-10T22:32:42.685Z,101388.19
2022-11-10T22:35:44.648Z,101396.47
2022-11-10T22:38:39.842Z,101391.44
2022-11-10T22:41:45.160Z,101391.66
2022-11-10T22:44:33.085Z,101384.06
2022-11-10T22:47:19.305Z,101384.06
2022-11-10T22:50:08.061Z,101379.47
2022-11-10T22:52:56.156Z,101375.72
2022-11-10T22:55:51.769Z,101379.13
2022-11-10T22:58:55.683Z,101373.53
2022-11-10T23:01:57.965Z,101376.56
2022-11-10T23:04:49.796Z,101380.34
2022-11-10T23:07:31.930Z,101380.56
2022-11-10T23:10:14.069Z,101375.72
2022-11-10T23:13:14.831Z,101376.56
2022-11-10T23:16:16.001Z,101372.37
2022-11-10T23:18:59.332Z,101373.28
2022-11-10T23:21:41.729Z,101381.97
2022-11-10T23:24:25.201Z,101382.22
2022-11-10T23:27:23.495Z,101385.94
2022-11-10T23:30:24.548Z,101386.37
2022-11-10T23:33:23.394Z,101384.72
2022-11-10T23:36:21.883Z,101380.19
2022-11-10T23:39:20.093Z,101384.28
2022-11-10T23:42:15.606Z,101384.72
2022-11-10T23:45:01.755Z,101379.75
2022-11-10T23:47:48.051Z,101380.28
2022-11-10T23:50:53.785Z,101371.34
2022-11-10T23:53:35.681Z,101375.25
2022-11-10T23:56:33.869Z,101373.13
2022-11-10T23:59:16.739Z,101374.25
